Time;durP1;ratioP1;P1;durP2;ratioP2;P2;SDS_P1;SDS_P2;PMS_P1;PMS_P2;Temp;Humidity;BMP_temperature;BMP_pressure;BME280_temperature;BME280_humidity;BME280_pressure;Samples;Min_cycle;Max_cycle;Signal;HPM_P1;HPM_P2
2022/04/29 00:00:31;;;;;;;0.88;0.88;;;7.30;99.90;;;;;;4971654;28;20401;-80
2022/04/29 00:02:57;;;;;;;0.63;0.63;;;7.20;99.90;;;;;;4972704;28;20264;-79
2022/04/29 00:05:24;;;;;;;2.03;1.13;;;7.30;99.90;;;;;;4972478;28;20585;-79
2022/04/29 00:07:50;;;;;;;0.70;0.63;;;7.30;99.90;;;;;;4973803;28;20556;-79
2022/04/29 00:10:16;;;;;;;0.85;0.50;;;7.30;99.90;;;;;;4972068;28;20030;-79
2022/04/29 00:12:43;;;;;;;0.25;0.25;;;7.20;99.90;;;;;;4970924;28;20075;-79
2022/04/29 00:15:10;;;;;;;0.35;0.35;;;7.10;99.90;;;;;;4971804;28;20411;-80
2022/04/29 00:17:36;;;;;;;0.77;0.70;;;7.10;99.90;;;;;;4970502;28;20414;-79
2022/04/29 00:20:02;;;;;;;3.20;0.98;;;7.10;99.90;;;;;;4972596;28;20413;-79
2022/04/29 00:22:28;;;;;;;0.65;0.60;;;7.10;99.90;;;;;;4972273;28;20082;-80
2022/04/29 00:24:53;;;;;;;0.63;0.63;;;7.00;99.90;;;;;;4971446;28;20035;-79
2022/04/29 00:27:19;;;;;;;1.17;1.08;;;7.00;99.90;;;;;;4971199;28;20133;-80
2022/04/29 00:29:44;;;;;;;0.75;0.75;;;6.90;99.90;;;;;;4964229;28;20042;-80
2022/04/29 00:32:10;;;;;;;0.57;0.57;;;6.90;99.90;;;;;;4972292;28;20541;-80
2022/04/29 00:34:35;;;;;;;0.47;0.47;;;6.80;99.90;;;;;;4971002;28;20039;-80
2022/04/29 00:37:01;;;;;;;0.15;0.15;;;6.80;99.90;;;;;;4971637;28;20165;-80
2022/04/29 00:39:26;;;;;;;1.98;1.25;;;6.80;99.90;;;;;;4975175;28;20596;-80
2022/04/29 00:41:52;;;;;;;0.38;0.38;;;6.70;99.90;;;;;;4967363;28;20062;-80
2022/04/29 00:44:18;;;;;;;1.23;0.82;;;6.70;99.90;;;;;;4971340;28;20458;-80
2022/04/29 00:46:45;;;;;;;0.30;0.30;;;6.70;99.90;;;;;;4971060;28;20049;-79
2022/04/29 00:49:13;;;;;;;0.68;0.68;;;6.80;99.90;;;;;;4969397;28;20026;-80
2022/04/29 00:51:44;;;;;;;0.35;0.20;;;6.70;99.90;;;;;;4968816;28;20023;-80
2022/04/29 00:54:13;;;;;;;2.42;1.52;;;6.70;99.90;;;;;;4972432;28;20019;-80
2022/04/29 00:56:41;;;;;;;0.57;0.55;;;6.70;99.90;;;;;;4971123;28;20038;-79
2022/04/29 00:59:15;;;;;;;1.17;0.90;;;6.60;99.90;;;;;;4969124;28;20433;-79
2022/04/29 01:01:44;;;;;;;1.10;0.55;;;6.60;99.90;;;;;;4967729;28;20486;-79
2022/04/29 01:04:12;;;;;;;0.17;0.17;;;6.60;99.90;;;;;;4970852;28;20031;-79
2022/04/29 01:06:38;;;;;;;0.15;0.15;;;6.60;99.90;;;;;;4970236;28;20099;-79
2022/04/29 01:09:03;;;;;;;1.70;1.60;;;6.50;99.90;;;;;;4971314;28;20031;-79
2022/04/29 01:11:29;;;;;;;0.45;0.45;;;6.50;99.90;;;;;;4972346;28;20023;-80
2022/04/29 01:13:54;;;;;;;0.30;0.30;;;6.60;99.90;;;;;;4968482;28;20478;-79
2022/04/29 01:16:21;;;;;;;0.10;0.10;;;6.60;99.90;;;;;;4971723;28;20027;-79
2022/04/29 01:18:52;;;;;;;0.88;0.88;;;6.60;99.90;;;;;;4969499;28;20023;-79
2022/04/29 01:21:17;;;;;;;0.73;0.73;;;6.50;99.90;;;;;;4969318;28;20047;-80
2022/04/29 01:23:43;;;;;;;0.90;0.90;;;6.40;99.90;;;;;;4970840;28;20444;-80
2022/04/29 01:26:10;;;;;;;0.70;0.70;;;6.50;99.90;;;;;;4970481;28;20027;-79
2022/04/29 01:28:36;;;;;;;0.38;0.38;;;6.50;99.90;;;;;;4971063;28;20474;-80
2022/04/29 01:31:03;;;;;;;0.52;0.52;;;6.50;99.90;;;;;;4970543;28;20042;-79
2022/04/29 01:33:30;;;;;;;0.32;0.32;;;6.50;99.90;;;;;;4970809;28;20101;-79
2022/04/29 01:35:55;;;;;;;0.80;0.80;;;6.50;99.90;;;;;;4970638;28;20031;-79
2022/04/29 01:38:22;;;;;;;0.50;0.50;;;6.40;99.90;;;;;;4969114;28;20030;-79
2022/04/29 01:40:47;;;;;;;0.10;0.10;;;6.30;99.90;;;;;;4975320;28;20027;-79
2022/04/29 01:43:13;;;;;;;1.08;1.08;;;6.40;99.90;;;;;;4969823;28;20508;-79
2022/04/29 01:45:39;;;;;;;0.82;0.80;;;6.20;99.90;;;;;;4969188;28;20057;-79
2022/04/29 01:48:04;;;;;;;1.00;1.00;;;6.20;99.90;;;;;;4969754;28;20031;-79
2022/04/29 01:50:30;;;;;;;0.52;0.52;;;6.20;99.90;;;;;;4968538;28;20038;-79
2022/04/29 01:52:55;;;;;;;0.10;0.10;;;6.10;99.90;;;;;;4968270;28;20031;-79
2022/04/29 01:55:21;;;;;;;0.32;0.32;;;6.00;99.90;;;;;;4974088;28;20030;-79
2022/04/29 01:57:49;;;;;;;0.20;0.20;;;5.90;99.90;;;;;;4969837;28;20051;-79
2022/04/29 02:00:15;;;;;;;0.20;0.20;;;5.90;99.90;;;;;;4969159;28;20039;-79
2022/04/29 02:02:41;;;;;;;18.05;3.20;;;5.90;99.90;;;;;;4969104;28;20122;-79
2022/04/29 02:05:06;;;;;;;1.55;0.93;;;5.90;99.90;;;;;;4968131;28;20117;-80
2022/04/29 02:07:32;;;;;;;0.47;0.47;;;5.90;99.90;;;;;;4969459;28;20039;-79
2022/04/29 02:09:57;;;;;;;0.47;0.40;;;5.90;99.90;;;;;;4969976;28;20124;-79
2022/04/29 02:12:23;;;;;;;0.55;0.30;;;5.80;99.90;;;;;;4969236;28;20018;-79
2022/04/29 02:14:48;;;;;;;0.22;0.22;;;5.70;99.90;;;;;;4965971;28;20493;-80
2022/04/29 02:17:14;;;;;;;0.47;0.47;;;5.80;99.90;;;;;;4969674;28;20027;-79
2022/04/29 02:19:40;;;;;;;0.75;0.73;;;5.70;99.90;;;;;;4967751;28;20089;-80
2022/04/29 02:22:08;;;;;;;0.40;0.40;;;5.80;99.90;;;;;;4969352;28;20134;-79
2022/04/29 02:24:33;;;;;;;0.80;0.75;;;5.70;99.90;;;;;;4969253;28;20031;-79
2022/04/29 02:26:59;;;;;;;3.83;0.98;;;5.70;99.90;;;;;;4972434;28;20030;-80
2022/04/29 02:29:27;;;;;;;34.70;2.70;;;5.60;99.90;;;;;;4967195;28;20122;-80
2022/04/29 02:31:52;;;;;;;1.52;1.42;;;5.50;99.90;;;;;;4969270;28;20027;-79
2022/04/29 02:34:18;;;;;;;18.52;1.40;;;5.60;99.90;;;;;;4970079;28;20042;-79
2022/04/29 02:36:44;;;;;;;0.77;0.55;;;5.60;99.90;;;;;;4965598;28;20035;-79
2022/04/29 02:39:10;;;;;;;0.20;0.20;;;5.50;99.90;;;;;;4965544;28;20030;-79
2022/04/29 02:41:36;;;;;;;0.45;0.45;;;5.40;99.90;;;;;;4969873;28;20504;-79
2022/04/29 02:44:02;;;;;;;0.75;0.75;;;5.40;99.90;;;;;;4968857;28;20031;-79
2022/04/29 02:46:28;;;;;;;0.30;0.30;;;5.40;99.90;;;;;;4971509;28;20047;-79
2022/04/29 02:48:53;;;;;;;1.00;0.57;;;5.40;99.90;;;;;;4969349;28;20031;-79
2022/04/29 02:51:19;;;;;;;0.93;0.68;;;5.30;99.90;;;;;;4974416;28;20173;-79
2022/04/29 02:53:44;;;;;;;1.42;1.33;;;5.30;99.90;;;;;;4969628;28;20034;-80
2022/04/29 02:56:10;;;;;;;0.80;0.80;;;5.30;99.90;;;;;;4969607;28;20104;-80
2022/04/29 02:58:36;;;;;;;0.30;0.30;;;5.20;99.90;;;;;;4971447;28;20190;-80
2022/04/29 03:01:02;;;;;;;0.52;0.52;;;5.20;99.90;;;;;;4969561;28;20445;-80
2022/04/29 03:03:28;;;;;;;0.65;0.55;;;5.10;99.90;;;;;;4968533;28;20035;-79
2022/04/29 03:05:54;;;;;;;0.20;0.20;;;5.20;99.90;;;;;;4969061;28;20027;-79
2022/04/29 03:08:19;;;;;;;0.10;0.10;;;5.10;99.90;;;;;;4969737;28;20481;-79
2022/04/29 03:10:46;;;;;;;0.50;0.50;;;5.10;99.90;;;;;;4968897;28;20031;-79
2022/04/29 03:13:12;;;;;;;0.88;0.88;;;5.10;99.90;;;;;;4969177;28;20394;-79
2022/04/29 03:15:38;;;;;;;0.20;0.20;;;5.00;99.90;;;;;;4969103;28;20026;-80
2022/04/29 03:18:20;;;;;;;0.43;0.43;;;5.00;99.90;;;;;;4969294;28;20106;-79
2022/04/29 03:20:47;;;;;;;0.50;0.50;;;5.10;99.90;;;;;;4965665;28;20037;-79
2022/04/29 03:23:13;;;;;;;0.20;0.20;;;5.10;99.90;;;;;;4969637;28;20081;-80
2022/04/29 03:25:42;;;;;;;1.58;0.85;;;5.00;99.90;;;;;;4968861;28;20035;-79
2022/04/29 03:28:08;;;;;;;0.40;0.40;;;5.00;99.90;;;;;;4969659;28;20031;-80
2022/04/29 03:30:35;;;;;;;0.10;0.10;;;4.90;99.90;;;;;;4972237;28;20031;-80
2022/04/29 03:33:03;;;;;;;0.10;0.10;;;4.90;99.90;;;;;;4972302;28;20441;-79
2022/04/29 03:35:28;;;;;;;0.77;0.77;;;4.90;99.90;;;;;;4972368;28;20034;-80
2022/04/29 03:37:54;;;;;;;0.55;0.55;;;4.90;99.90;;;;;;4971057;28;20031;-79
2022/04/29 03:40:22;;;;;;;1.88;0.95;;;4.90;99.90;;;;;;4972428;28;20030;-80
2022/04/29 03:42:53;;;;;;;1.10;1.00;;;4.90;99.90;;;;;;4977247;28;20096;-79
2022/04/29 03:45:20;;;;;;;0.30;0.30;;;4.90;99.90;;;;;;4972082;28;20057;-80
2022/04/29 03:47:45;;;;;;;2.00;1.00;;;4.90;99.90;;;;;;4971556;28;20035;-80
2022/04/29 03:50:11;;;;;;;0.95;0.68;;;4.90;99.90;;;;;;4982411;28;20029;-79
2022/04/29 03:52:47;;;;;;;4.60;0.82;;;4.90;99.90;;;;;;4978240;28;20042;-80
2022/04/29 03:55:14;;;;;;;0.50;0.50;;;4.90;99.90;;;;;;4973775;28;20486;-80
2022/04/29 03:57:40;;;;;;;0.80;0.65;;;4.80;99.90;;;;;;4972110;28;20105;-79
2022/04/29 04:00:06;;;;;;;0.73;0.65;;;4.80;99.90;;;;;;4971687;28;20584;-79
2022/04/29 04:02:32;;;;;;;0.30;0.30;;;4.80;99.90;;;;;;4975932;28;20142;-79
2022/04/29 04:04:57;;;;;;;0.68;0.68;;;4.80;99.90;;;;;;4971505;28;20071;-80
2022/04/29 04:07:23;;;;;;;0.60;0.60;;;4.80;99.90;;;;;;4970860;28;20157;-79
2022/04/29 04:09:49;;;;;;;0.57;0.40;;;4.90;99.90;;;;;;4972093;28;20026;-79
2022/04/29 04:12:14;;;;;;;0.77;0.55;;;5.00;99.90;;;;;;4973466;28;20018;-80
2022/04/29 04:14:40;;;;;;;4.03;0.52;;;5.00;99.90;;;;;;4972952;28;20042;-80
2022/04/29 04:17:24;;;;;;;0.15;0.15;;;5.00;99.90;;;;;;4972545;28;20015;-80
2022/04/29 04:19:50;;;;;;;0.30;0.30;;;5.10;99.90;;;;;;4966223;28;20508;-80
2022/04/29 04:22:15;;;;;;;1.48;0.88;;;5.20;99.90;;;;;;4975449;28;20034;-80
2022/04/29 04:24:41;;;;;;;0.57;0.57;;;5.30;99.90;;;;;;4970818;28;20088;-79
2022/04/29 04:27:06;;;;;;;0.63;0.47;;;5.30;99.90;;;;;;4972386;28;20042;-79
2022/04/29 04:29:32;;;;;;;0.70;0.65;;;5.40;99.90;;;;;;4972111;28;20023;-79
2022/04/29 04:31:58;;;;;;;0.50;0.50;;;5.50;99.90;;;;;;4969595;28;20079;-79
2022/04/29 04:37:10;;;;;;;0.35;0.35;;;5.60;99.90;;;;;;4963186;28;20081;-80
2022/04/29 04:39:35;;;;;;;0.22;0.22;;;5.80;99.90;;;;;;4971486;28;20035;-80
2022/04/29 04:42:01;;;;;;;2.78;1.23;;;5.80;99.90;;;;;;4970673;28;20026;-80
2022/04/29 04:44:27;;;;;;;1.52;1.15;;;5.90;99.90;;;;;;4971072;28;20029;-81
2022/04/29 04:46:52;;;;;;;0.73;0.73;;;6.00;99.90;;;;;;4971272;28;20039;-80
2022/04/29 04:49:17;;;;;;;0.10;0.10;;;6.20;99.90;;;;;;4973809;28;20105;-80
2022/04/29 04:51:43;;;;;;;29.33;1.00;;;6.20;99.90;;;;;;4967331;28;20833;-80
2022/04/29 04:54:08;;;;;;;0.20;0.20;;;6.40;99.90;;;;;;4970250;28;20030;-80
2022/04/29 04:56:34;;;;;;;0.63;0.63;;;6.50;99.90;;;;;;4968993;28;20186;-80
2022/04/29 04:59:00;;;;;;;2.08;1.55;;;6.60;99.90;;;;;;4974363;28;20030;-80
2022/04/29 05:01:25;;;;;;;0.45;0.45;;;6.70;99.90;;;;;;4975107;28;20027;-80
2022/04/29 05:03:51;;;;;;;0.43;0.43;;;6.90;99.90;;;;;;4973751;28;20038;-80
2022/04/29 05:06:16;;;;;;;0.55;0.55;;;6.90;99.90;;;;;;4968672;28;20023;-80
2022/04/29 05:08:41;;;;;;;0.63;0.40;;;7.00;99.90;;;;;;4969558;28;20030;-80
2022/04/29 05:11:07;;;;;;;0.30;0.30;;;7.20;99.90;;;;;;4968845;28;20145;-80
2022/04/29 05:13:32;;;;;;;0.28;0.28;;;7.40;99.90;;;;;;4968852;28;20027;-80
2022/04/29 05:15:58;;;;;;;1.08;0.85;;;7.50;99.90;;;;;;4969652;28;20027;-80
2022/04/29 05:18:24;;;;;;;1.17;1.08;;;7.60;99.90;;;;;;4970235;28;20038;-81
2022/04/29 05:20:49;;;;;;;0.80;0.77;;;7.70;99.90;;;;;;4965428;28;20030;-81
2022/04/29 05:23:15;;;;;;;0.20;0.20;;;7.80;99.90;;;;;;4969248;28;20026;-80
2022/04/29 05:25:41;;;;;;;1.35;1.25;;;7.90;99.90;;;;;;4962709;28;20028;-81
2022/04/29 05:28:07;;;;;;;0.63;0.63;;;8.00;99.90;;;;;;4970057;28;20077;-81
2022/04/29 05:30:34;;;;;;;1.00;0.93;;;8.10;99.90;;;;;;4966041;28;20113;-80
2022/04/29 05:33:00;;;;;;;0.30;0.30;;;8.20;99.90;;;;;;4970927;28;20031;-81
2022/04/29 05:35:26;;;;;;;0.65;0.60;;;8.30;99.90;;;;;;4964735;28;20049;-81
2022/04/29 05:37:51;;;;;;;0.88;0.88;;;8.50;99.90;;;;;;4966024;28;20433;-81
2022/04/29 05:43:02;;;;;;;2.28;1.10;;;8.70;99.90;;;;;;4962224;28;20054;-89
2022/04/29 05:45:28;;;;;;;0.70;0.70;;;8.80;99.90;;;;;;4967210;28;20540;-90
2022/04/29 05:47:54;;;;;;;1.02;0.85;;;8.90;99.90;;;;;;4972062;28;20029;-84
2022/04/29 05:50:19;;;;;;;0.55;0.55;;;9.00;99.90;;;;;;4971485;28;20549;-80
2022/04/29 05:52:45;;;;;;;0.40;0.30;;;9.00;99.90;;;;;;4966262;28;20026;-79
2022/04/29 05:55:11;;;;;;;0.10;0.10;;;9.10;99.90;;;;;;4971486;28;20485;-80
2022/04/29 05:57:37;;;;;;;0.70;0.70;;;9.20;99.90;;;;;;4967308;28;20120;-81
2022/04/29 06:00:03;;;;;;;2.78;1.95;;;9.30;99.90;;;;;;4971477;28;20038;-81
2022/04/29 06:02:28;;;;;;;0.25;0.25;;;9.30;99.90;;;;;;4967998;28;20114;-81
2022/04/29 06:04:54;;;;;;;0.80;0.60;;;9.40;99.90;;;;;;4967537;28;20101;-81
2022/04/29 06:07:19;;;;;;;0.38;0.38;;;9.50;99.90;;;;;;4968949;28;20051;-79
2022/04/29 06:09:45;;;;;;;0.88;0.45;;;9.60;99.90;;;;;;4963803;28;20038;-80
2022/04/29 06:12:11;;;;;;;0.30;0.30;;;9.80;99.90;;;;;;4969274;28;20034;-82
2022/04/29 06:14:36;;;;;;;0.70;0.70;;;9.90;99.90;;;;;;4970153;28;20039;-77
2022/04/29 06:17:02;;;;;;;0.20;0.20;;;10.00;99.90;;;;;;4970253;28;20039;-77
2022/04/29 06:19:28;;;;;;;0.52;0.52;;;10.10;99.90;;;;;;4967893;28;20019;-79
2022/04/29 06:21:54;;;;;;;0.22;0.22;;;10.20;99.40;;;;;;4966362;28;20034;-76
2022/04/29 06:24:19;;;;;;;0.75;0.75;;;10.40;99.90;;;;;;4969972;28;20486;-78
2022/04/29 06:26:45;;;;;;;0.52;0.52;;;10.50;97.50;;;;;;4964495;28;20089;-78
2022/04/29 06:29:10;;;;;;;1.88;0.88;;;10.50;97.10;;;;;;4972231;28;20039;-76
2022/04/29 06:31:36;;;;;;;0.50;0.50;;;10.50;93.50;;;;;;4967530;28;20019;-76
2022/04/29 06:34:02;;;;;;;0.20;0.20;;;10.70;94.20;;;;;;4966202;28;20030;-77
2022/04/29 06:36:27;;;;;;;0.20;0.20;;;10.70;92.90;;;;;;4968820;28;20022;-78
2022/04/29 06:38:53;;;;;;;0.40;0.40;;;10.80;91.50;;;;;;4966471;28;20355;-81
2022/04/29 06:41:18;;;;;;;0.80;0.80;;;10.90;91.30;;;;;;4970257;28;20106;-84
2022/04/29 06:43:44;;;;;;;1.00;0.57;;;11.00;88.80;;;;;;4967479;28;20516;-83
2022/04/29 06:46:10;;;;;;;4.38;0.32;;;11.10;86.70;;;;;;4967066;28;20039;-87
2022/04/29 06:48:36;;;;;;;0.00;0.00;;;11.30;86.50;;;;;;4966723;28;20026;-83
2022/04/29 06:51:01;;;;;;;0.20;0.20;;;11.40;85.40;;;;;;4966791;28;20381;-87
2022/04/29 06:53:27;;;;;;;0.73;0.60;;;11.60;81.80;;;;;;4969269;28;20027;-78
2022/04/29 06:55:53;;;;;;;0.10;0.10;;;11.80;78.90;;;;;;4968604;28;20503;-79
2022/04/29 06:58:19;;;;;;;0.40;0.40;;;11.90;78.50;;;;;;4968087;28;20102;-79
2022/04/29 07:00:45;;;;;;;0.20;0.20;;;12.00;78.30;;;;;;4972214;28;20117;-78
2022/04/29 07:03:11;;;;;;;0.20;0.20;;;12.10;78.60;;;;;;4969619;28;20043;-79
2022/04/29 07:05:38;;;;;;;0.20;0.20;;;12.20;76.80;;;;;;4969295;28;20054;-78
2022/04/29 07:08:04;;;;;;;1.08;0.98;;;12.40;72.20;;;;;;4968452;28;20074;-79
2022/04/29 07:10:30;;;;;;;0.10;0.10;;;12.40;72.70;;;;;;4976557;28;20031;-79
2022/04/29 07:12:55;;;;;;;0.32;0.32;;;12.50;69.50;;;;;;4967356;28;20042;-77
2022/04/29 07:15:21;;;;;;;0.00;0.00;;;12.50;70.90;;;;;;4966917;28;20034;-77
2022/04/29 07:17:49;;;;;;;8.05;1.98;;;12.60;69.10;;;;;;4967077;28;20033;-77
2022/04/29 07:20:16;;;;;;;0.15;0.15;;;12.70;66.00;;;;;;4966917;28;20034;-77
2022/04/29 07:22:42;;;;;;;0.00;0.00;;;12.80;68.90;;;;;;4968365;28;20634;-77
2022/04/29 07:25:10;;;;;;;0.32;0.30;;;13.00;68.30;;;;;;4968322;28;20042;-77
2022/04/29 07:27:36;;;;;;;0.10;0.10;;;13.20;68.60;;;;;;4969003;28;20389;-77
2022/04/29 07:30:04;;;;;;;0.35;0.35;;;13.20;62.70;;;;;;4975521;28;20035;-77
2022/04/29 07:32:30;;;;;;;0.15;0.15;;;13.30;62.30;;;;;;4968100;28;20038;-77
2022/04/29 07:43:10;;;;;;;0.20;0.20;;;13.80;61.80;;;;;;4969268;28;20080;-77
2022/04/29 07:45:37;;;;;;;0.45;0.45;;;14.00;60.60;;;;;;4968577;28;20054;-77
2022/04/29 07:48:05;;;;;;;6.70;0.75;;;14.10;60.60;;;;;;4974667;28;20066;-77
2022/04/29 07:50:31;;;;;;;1.27;0.43;;;14.20;60.70;;;;;;4980187;28;20045;-78
2022/04/29 07:52:58;;;;;;;0.03;0.03;;;14.20;58.80;;;;;;4969028;28;20242;-77
2022/04/29 07:55:24;;;;;;;0.20;0.10;;;14.20;58.60;;;;;;4968243;28;20031;-77
2022/04/29 07:57:50;;;;;;;0.03;0.03;;;14.40;56.20;;;;;;4970874;28;20078;-77
2022/04/29 08:00:15;;;;;;;0.15;0.15;;;14.40;55.20;;;;;;4970682;28;20034;-78
2022/04/29 08:02:41;;;;;;;3.72;1.65;;;14.50;55.70;;;;;;4967936;28;20533;-78
2022/04/29 08:05:07;;;;;;;1.70;0.52;;;14.60;58.70;;;;;;4968342;28;20026;-78
2022/04/29 08:07:33;;;;;;;0.00;0.00;;;14.70;57.90;;;;;;4966872;28;20111;-77
2022/04/29 08:09:59;;;;;;;0.28;0.13;;;14.80;55.80;;;;;;4984943;28;20270;-77
2022/04/29 08:12:26;;;;;;;0.32;0.20;;;14.90;55.30;;;;;;4968638;28;20035;-78
2022/04/29 08:14:56;;;;;;;0.30;0.22;;;14.90;57.10;;;;;;4968156;28;20023;-78
2022/04/29 08:17:22;;;;;;;1.60;0.43;;;14.80;53.60;;;;;;4969862;28;20097;-77
2022/04/29 08:19:48;;;;;;;0.17;0.17;;;14.70;55.10;;;;;;4974729;28;20022;-78
2022/04/29 08:22:15;;;;;;;0.10;0.10;;;14.70;53.50;;;;;;4958473;28;20054;-77
2022/04/29 08:24:41;;;;;;;0.52;0.10;;;14.70;53.50;;;;;;4971255;28;20030;-78
2022/04/29 08:27:07;;;;;;;0.00;0.00;;;14.80;54.00;;;;;;4971540;28;20037;-77
2022/04/29 08:29:33;;;;;;;7.90;0.52;;;14.90;53.50;;;;;;4972238;28;20395;-77
2022/04/29 08:31:58;;;;;;;0.00;0.00;;;15.10;54.60;;;;;;4971009;28;20330;-77
2022/04/29 08:34:25;;;;;;;0.00;0.00;;;15.30;55.90;;;;;;4971017;28;20538;-78
2022/04/29 08:36:50;;;;;;;0.10;0.10;;;15.50;54.70;;;;;;4971452;28;20034;-77
2022/04/29 08:39:16;;;;;;;0.13;0.13;;;15.60;55.20;;;;;;4971077;28;20097;-77
2022/04/29 08:41:42;;;;;;;0.20;0.20;;;15.90;52.90;;;;;;4980922;28;20046;-77
2022/04/29 08:44:13;;;;;;;0.05;0.05;;;16.00;53.00;;;;;;4975144;28;20107;-78
2022/04/29 08:46:40;;;;;;;0.20;0.20;;;16.20;52.90;;;;;;4966671;28;20078;-78
2022/04/29 08:49:07;;;;;;;0.20;0.20;;;16.10;53.30;;;;;;4966471;28;20031;-77
2022/04/29 08:51:34;;;;;;;0.10;0.10;;;16.40;54.80;;;;;;4984351;28;20027;-77
2022/04/29 08:54:04;;;;;;;0.52;0.52;;;16.50;52.20;;;;;;4982290;28;20443;-77
2022/04/29 08:59:20;;;;;;;0.10;0.10;;;16.40;54.70;;;;;;4967944;28;20089;-76
2022/04/29 09:01:46;;;;;;;0.75;0.38;;;16.40;51.50;;;;;;4970063;28;20437;-85
2022/04/29 09:04:11;;;;;;;0.22;0.22;;;16.40;52.50;;;;;;4969776;28;20042;-88
2022/04/29 09:06:50;;;;;;;0.57;0.57;;;16.30;53.20;;;;;;4971337;28;20030;-83
2022/04/29 09:09:19;;;;;;;0.30;0.22;;;16.20;52.30;;;;;;4971336;28;20035;-82
2022/04/29 09:11:46;;;;;;;0.70;0.63;;;16.20;53.80;;;;;;4971544;28;20077;-87
2022/04/29 09:14:23;;;;;;;21.25;0.70;;;16.30;55.10;;;;;;4963909;28;20109;-83
2022/04/29 09:16:49;;;;;;;0.77;0.70;;;16.30;54.40;;;;;;4972495;28;20029;-85
2022/04/29 09:19:32;;;;;;;1.35;0.63;;;16.50;53.20;;;;;;4969049;28;20066;-84
2022/04/29 09:22:07;;;;;;;0.98;0.88;;;16.80;53.20;;;;;;4966801;28;20034;-83
2022/04/29 09:24:33;;;;;;;0.15;0.15;;;17.00;53.50;;;;;;4979050;28;20044;-84
2022/04/29 09:27:00;;;;;;;0.22;0.17;;;17.20;52.10;;;;;;4965977;28;20034;-85
2022/04/29 09:29:26;;;;;;;3.13;1.73;;;17.10;51.50;;;;;;4966362;28;20058;-78
2022/04/29 09:31:56;;;;;;;0.32;0.32;;;17.10;51.40;;;;;;4971521;28;20061;-79
2022/04/29 09:34:22;;;;;;;0.10;0.10;;;17.20;53.40;;;;;;4974980;28;20073;-78
2022/04/29 09:36:51;;;;;;;0.10;0.10;;;17.10;52.80;;;;;;4966670;28;20064;-78
2022/04/29 09:39:32;;;;;;;0.13;0.13;;;17.10;52.10;;;;;;4975046;28;20081;-78
2022/04/29 09:42:05;;;;;;;0.73;0.55;;;17.00;53.10;;;;;;4958094;28;20031;-78
2022/04/29 09:44:36;;;;;;;0.20;0.20;;;17.10;52.90;;;;;;4966223;28;20073;-79
2022/04/29 09:47:20;;;;;;;0.20;0.20;;;17.00;55.80;;;;;;4967030;28;20038;-78
2022/04/29 09:49:59;;;;;;;0.98;0.52;;;16.90;54.60;;;;;;4973791;28;20030;-77
2022/04/29 09:52:26;;;;;;;1.70;0.85;;;16.90;52.00;;;;;;4974419;28;20034;-76
2022/04/29 09:55:15;;;;;;;0.88;0.75;;;16.70;53.40;;;;;;4966132;28;20177;-76
2022/04/29 09:58:09;;;;;;;1.65;0.10;;;16.80;54.70;;;;;;4963407;28;20053;-76
2022/04/29 10:00:35;;;;;;;0.17;0.13;;;17.00;54.80;;;;;;4963686;28;20081;-76
2022/04/29 10:03:03;;;;;;;1.50;0.60;;;17.00;56.40;;;;;;4963702;28;20067;-76
2022/04/29 10:05:31;;;;;;;0.50;0.40;;;17.30;52.60;;;;;;4973451;28;20022;-76
2022/04/29 10:07:58;;;;;;;3.25;0.77;;;17.30;52.30;;;;;;4970283;28;20037;-76
2022/04/29 10:10:30;;;;;;;1.35;1.25;;;17.30;51.50;;;;;;4969836;28;20062;-76
2022/04/29 10:12:56;;;;;;;0.55;0.50;;;17.40;49.50;;;;;;4970462;28;20473;-76
2022/04/29 10:15:23;;;;;;;0.10;0.10;;;17.40;50.30;;;;;;4969510;28;20046;-75
2022/04/29 10:23:26;;;;;;;0.20;0.20;;;18.20;51.70;;;;;;4969871;28;20064;-76
2022/04/29 10:25:52;;;;;;;0.80;0.43;;;18.10;47.70;;;;;;4970177;28;20385;-76
2022/04/29 10:28:20;;;;;;;0.75;0.63;;;18.00;49.50;;;;;;4958056;28;20154;-76
2022/04/29 10:30:46;;;;;;;1.70;0.73;;;17.90;49.50;;;;;;4972312;28;20034;-76
2022/04/29 10:33:24;;;;;;;0.98;0.52;;;17.90;51.50;;;;;;4969682;28;20170;-76
2022/04/29 10:35:56;;;;;;;1.02;0.88;;;17.90;48.90;;;;;;4969927;28;20026;-76
2022/04/29 10:38:23;;;;;;;0.38;0.32;;;18.10;51.10;;;;;;4970273;28;20019;-76
2022/04/29 10:41:15;;;;;;;0.35;0.35;;;17.90;49.20;;;;;;4968783;28;20438;-74
2022/04/29 10:43:50;;;;;;;0.63;0.63;;;17.80;47.70;;;;;;4970576;28;20404;-75
2022/04/29 10:46:22;;;;;;;0.45;0.45;;;17.60;47.90;;;;;;4965960;28;20046;-75
2022/04/29 10:48:49;;;;;;;0.45;0.45;;;17.60;48.50;;;;;;4975380;28;20035;-75
2022/04/29 10:51:15;;;;;;;2.22;0.60;;;17.50;49.50;;;;;;4968902;28;20041;-75
2022/04/29 10:53:42;;;;;;;0.52;0.52;;;18.00;50.40;;;;;;4968619;28;20027;-76
2022/04/29 10:56:30;;;;;;;1.92;0.85;;;18.40;49.90;;;;;;4967051;28;20058;-76
2022/04/29 10:59:11;;;;;;;0.15;0.15;;;18.60;50.80;;;;;;4969367;28;20030;-75
2022/04/29 11:01:38;;;;;;;0.32;0.20;;;18.60;46.30;;;;;;4964830;28;20158;-75
2022/04/29 11:04:05;;;;;;;1.15;0.45;;;18.60;49.50;;;;;;4969475;28;20677;-75
2022/04/29 11:06:47;;;;;;;0.95;0.38;;;19.10;50.20;;;;;;4968157;28;20105;-76
2022/04/29 11:09:24;;;;;;;0.50;0.35;;;19.50;49.10;;;;;;4964724;28;20035;-75
2022/04/29 11:11:49;;;;;;;0.60;0.60;;;19.90;49.50;;;;;;4965985;28;20386;-75
2022/04/29 11:14:15;;;;;;;0.17;0.17;;;20.00;44.60;;;;;;4968259;28;20027;-75
2022/04/29 11:16:56;;;;;;;0.20;0.20;;;19.40;45.30;;;;;;4968657;28;20110;-76
2022/04/29 11:19:27;;;;;;;0.40;0.40;;;19.60;44.10;;;;;;4967920;28;20419;-76
2022/04/29 11:24:42;;;;;;;0.15;0.15;;;19.50;42.70;;;;;;4968258;28;20118;-76
2022/04/29 11:27:07;;;;;;;0.03;0.03;;;19.60;43.60;;;;;;4967916;28;20027;-75
2022/04/29 11:29:44;;;;;;;0.25;0.25;;;19.70;44.10;;;;;;4966000;28;20494;-75
2022/04/29 11:32:10;;;;;;;0.13;0.10;;;20.00;46.40;;;;;;4960282;28;20055;-75
2022/04/29 11:34:51;;;;;;;0.45;0.40;;;20.70;46.00;;;;;;4970492;28;20069;-75
2022/04/29 11:37:22;;;;;;;0.38;0.38;;;20.50;41.60;;;;;;4968409;28;20034;-76
2022/04/29 11:39:48;;;;;;;1.05;0.88;;;20.30;40.40;;;;;;4966496;28;20066;-76
2022/04/29 11:42:17;;;;;;;0.30;0.10;;;20.30;44.20;;;;;;4968007;28;20034;-76
2022/04/29 11:44:44;;;;;;;1.38;1.08;;;21.10;44.80;;;;;;4965881;28;20157;-76
2022/04/29 11:47:09;;;;;;;0.17;0.17;;;21.50;42.90;;;;;;4967980;28;20035;-76
2022/04/29 11:49:35;;;;;;;6.95;0.38;;;21.60;38.80;;;;;;4968149;28;20385;-76
2022/04/29 11:52:23;;;;;;;0.50;0.50;;;21.20;39.00;;;;;;4969940;28;20449;-76
2022/04/29 11:54:52;;;;;;;0.38;0.38;;;21.30;39.60;;;;;;4967449;28;20425;-75
2022/04/29 11:57:18;;;;;;;0.90;0.38;;;21.60;40.80;;;;;;4974107;28;20057;-76
2022/04/29 11:59:44;;;;;;;2.35;1.45;;;22.00;39.50;;;;;;4968487;28;20501;-76
2022/04/29 12:02:20;;;;;;;2.15;0.60;;;22.20;41.80;;;;;;4966715;28;20030;-76
2022/04/29 12:04:59;;;;;;;2.30;0.90;;;23.20;41.30;;;;;;4971251;28;20110;-78
2022/04/29 12:07:27;;;;;;;0.90;0.50;;;24.10;40.20;;;;;;4971983;28;20097;-75
2022/04/29 12:09:53;;;;;;;2.72;0.85;;;25.10;39.50;;;;;;4964889;28;20037;-81
2022/04/29 12:12:27;;;;;;;0.15;0.15;;;25.50;36.60;;;;;;4968851;28;20110;-74
2022/04/29 12:14:54;;;;;;;0.63;0.63;;;25.40;35.90;;;;;;4971069;28;20091;-76
2022/04/29 12:17:30;;;;;;;1.65;0.50;;;25.50;37.10;;;;;;4968570;28;20034;-76
2022/04/29 12:19:56;;;;;;;0.10;0.10;;;25.50;34.70;;;;;;4975074;28;20504;-77
2022/04/29 12:22:30;;;;;;;0.38;0.38;;;24.90;36.30;;;;;;4971042;28;20051;-77
2022/04/29 12:24:56;;;;;;;2.78;1.02;;;24.30;37.70;;;;;;4969314;28;20113;-78
2022/04/29 12:27:30;;;;;;;0.50;0.38;;;23.20;36.40;;;;;;4970011;28;20162;-76
2022/04/29 12:35:28;;;;;;;2.78;0.88;;;22.30;37.80;;;;;;4967520;28;20033;-80
2022/04/29 12:37:54;;;;;;;1.67;0.85;;;23.30;38.90;;;;;;4968473;28;20031;-77
2022/04/29 12:40:28;;;;;;;0.63;0.30;;;24.70;37.00;;;;;;4970867;28;20039;-79
2022/04/29 12:43:07;;;;;;;0.50;0.50;;;25.30;32.20;;;;;;4969540;28;20043;-80
2022/04/29 12:45:33;;;;;;;0.35;0.30;;;25.00;34.00;;;;;;4971078;28;20136;-79
2022/04/29 12:48:07;;;;;;;0.50;0.50;;;25.50;31.90;;;;;;4968846;28;20093;-78
2022/04/29 12:50:43;;;;;;;1.23;0.50;;;24.90;33.60;;;;;;4969350;28;20367;-77
2022/04/29 12:53:15;;;;;;;3.17;1.48;;;24.90;33.70;;;;;;4969805;28;20019;-78
2022/04/29 12:55:44;;;;;;;2.10;0.85;;;25.70;33.90;;;;;;4971678;28;20023;-80
2022/04/29 12:58:14;;;;;;;0.82;0.75;;;26.20;32.50;;;;;;4968789;28;20097;-76
2022/04/29 13:00:50;;;;;;;0.25;0.25;;;27.20;31.90;;;;;;4970064;28;20026;-78
2022/04/29 13:03:18;;;;;;;1.65;0.77;;;27.50;31.90;;;;;;4969094;28;21292;-80
2022/04/29 13:05:44;;;;;;;0.30;0.30;;;28.60;31.90;;;;;;4969861;28;20041;-81
2022/04/29 13:08:10;;;;;;;4.90;0.38;;;30.70;29.60;;;;;;4969773;28;20390;-79
2022/04/29 13:10:43;;;;;;;0.10;0.10;;;32.50;28.90;;;;;;4967979;28;20046;-77
2022/04/29 13:13:10;;;;;;;0.38;0.38;;;32.60;25.60;;;;;;4967217;28;20482;-77
2022/04/29 13:15:38;;;;;;;0.80;0.30;;;32.00;27.90;;;;;;4970233;28;20027;-79
2022/04/29 13:18:04;;;;;;;1.00;0.95;;;31.70;26.60;;;;;;4970480;28;20077;-80
2022/04/29 13:20:32;;;;;;;0.85;0.65;;;32.50;26.40;;;;;;4970227;28;20031;-81
2022/04/29 13:22:57;;;;;;;0.93;0.60;;;32.80;26.70;;;;;;4971093;28;20054;-77